Time;durP1;ratioP1;P1;durP2;ratioP2;P2;SDS_P1;SDS_P2;PMS_P1;PMS_P2;Temp;Humidity;BMP_temperature;BMP_pressure;BME280_temperature;BME280_humidity;BME280_pressure;Samples;Min_cycle;Max_cycle;Signal;HPM_P1;HPM_P2
2021/10/02 00:46:19;;;;;;;2.58;1.92;;;;;;;;;;4933400;29;20127;-73
2021/10/02 00:48:44;;;;;;;1.77;1.30;;;;;;;;;;4933373;29;20043;-73
2021/10/02 00:51:09;;;;;;;2.70;1.90;;;;;;;;;;4933265;29;20035;-72
2021/10/02 00:53:34;;;;;;;4.40;3.10;;;;;;;;;;4932284;29;20470;-73
2021/10/02 00:56:00;;;;;;;5.25;3.30;;;;;;;;;;4930742;29;20474;-73
2021/10/02 00:58:25;;;;;;;4.57;3.50;;;;;;;;;;4933108;29;20252;-72
2021/10/02 01:00:52;;;;;;;4.38;3.38;;;;;;;;;;4932691;29;20024;-73
2021/10/02 01:03:25;;;;;;;3.72;2.60;;;;;;;;;;4932571;29;20027;-73
2021/10/02 01:06:06;;;;;;;3.10;2.08;;;;;;;;;;4933184;29;20058;-73
2021/10/02 01:08:31;;;;;;;3.95;2.50;;;;;;;;;;4933097;29;20031;-73
2021/10/02 01:11:06;;;;;;;4.28;3.38;;;;;;;;;;4932554;29;20031;-73
2021/10/02 01:13:39;;;;;;;5.72;3.75;;;;;;;;;;4932578;29;20036;-73
2021/10/02 01:16:18;;;;;;;6.30;4.65;;;;;;;;;;5012667;28;20014;-73
2021/10/02 01:18:51;;;;;;;5.75;4.22;;;;;;;;;;4994997;28;20498;-73
2021/10/02 01:21:19;;;;;;;4.30;3.75;;;;;;;;;;5011803;28;20064;-73
2021/10/02 01:23:57;;;;;;;4.72;4.05;;;;;;;;;;4993491;28;20506;-73
2021/10/02 01:26:42;;;;;;;5.28;4.10;;;;;;;;;;4974824;28;20508;-73
2021/10/02 01:29:09;;;;;;;5.68;4.63;;;;;;;;;;4992429;28;20018;-73
2021/10/02 01:31:39;;;;;;;4.30;3.85;;;;;;;;;;4997943;28;20045;-73
2021/10/02 01:47:50;;;;;;;1.95;1.48;;;;;;;;;;5012496;28;20052;-73
2021/10/02 01:50:15;;;;;;;2.30;1.17;;;;;;;;;;4994243;28;20030;-73
2021/10/02 01:52:42;;;;;;;3.10;1.17;;;;;;;;;;4993647;28;20029;-73
2021/10/02 01:55:08;;;;;;;2.40;1.10;;;;;;;;;;5013931;28;20022;-73
2021/10/02 01:57:41;;;;;;;2.78;1.77;;;;;;;;;;5011288;28;20042;-73
2021/10/02 02:00:08;;;;;;;2.90;1.42;;;;;;;;;;5011626;28;20088;-73
2021/10/02 02:02:34;;;;;;;2.58;1.20;;;;;;;;;;4994386;28;20017;-73
2021/10/02 02:05:00;;;;;;;2.10;1.67;;;;;;;;;;5014132;28;20484;-73
2021/10/02 02:07:27;;;;;;;3.25;1.98;;;;;;;;;;5016155;28;20117;-73
2021/10/02 02:09:54;;;;;;;2.35;1.60;;;;;;;;;;5015552;28;20062;-73
2021/10/02 02:12:20;;;;;;;2.83;1.65;;;;;;;;;;5015448;28;20026;-73
2021/10/02 02:14:47;;;;;;;3.75;1.95;;;;;;;;;;5015688;28;20041;-73
2021/10/02 02:17:14;;;;;;;3.88;1.95;;;;;;;;;;5015821;28;20025;-73
2021/10/02 02:19:40;;;;;;;3.00;2.33;;;;;;;;;;5015298;28;20499;-73
2021/10/02 02:22:05;;;;;;;2.55;2.10;;;;;;;;;;5015650;28;20048;-73
2021/10/02 02:24:31;;;;;;;2.78;1.50;;;;;;;;;;5013916;28;20532;-73
2021/10/02 02:26:57;;;;;;;2.35;2.03;;;;;;;;;;5014724;28;20044;-73
2021/10/02 02:29:22;;;;;;;2.22;2.00;;;;;;;;;;4998085;28;20446;-73
2021/10/02 02:31:48;;;;;;;3.60;1.83;;;;;;;;;;5015177;28;20538;-73
2021/10/02 02:34:13;;;;;;;3.55;2.13;;;;;;;;;;5014253;28;20476;-73
2021/10/02 02:36:39;;;;;;;2.65;1.77;;;;;;;;;;4981684;28;20064;-73
2021/10/02 02:39:04;;;;;;;3.10;2.05;;;;;;;;;;4997738;28;20262;-73
2021/10/02 02:41:29;;;;;;;2.88;2.13;;;;;;;;;;4997032;28;20105;-73
2021/10/02 02:43:55;;;;;;;2.58;1.52;;;;;;;;;;4997610;28;20439;-73
2021/10/02 02:46:35;;;;;;;3.22;1.50;;;;;;;;;;5014966;28;20487;-73
2021/10/02 02:49:00;;;;;;;2.50;1.50;;;;;;;;;;5015270;28;20030;-73
2021/10/02 02:51:28;;;;;;;2.35;2.13;;;;;;;;;;5014574;28;20060;-73
2021/10/02 02:53:56;;;;;;;2.17;1.58;;;;;;;;;;4994951;28;20285;-73
2021/10/02 02:56:41;;;;;;;2.08;1.52;;;;;;;;;;4984348;28;20105;-73
2021/10/02 02:59:09;;;;;;;1.77;1.50;;;;;;;;;;4977238;28;20038;-73
2021/10/02 03:01:36;;;;;;;1.48;1.30;;;;;;;;;;4995125;28;20023;-73
2021/10/02 03:04:01;;;;;;;1.40;1.08;;;;;;;;;;4994319;28;20022;-73
2021/10/02 03:06:27;;;;;;;3.50;1.63;;;;;;;;;;4993771;28;20504;-73
2021/10/02 03:08:54;;;;;;;4.68;1.58;;;;;;;;;;4993635;28;20383;-73
2021/10/02 03:11:21;;;;;;;2.17;1.58;;;;;;;;;;4993415;28;20109;-73
2021/10/02 03:13:48;;;;;;;2.33;1.65;;;;;;;;;;4995225;28;20035;-73
2021/10/02 03:16:15;;;;;;;4.78;1.38;;;;;;;;;;4976216;28;20029;-73
2021/10/02 03:18:42;;;;;;;2.75;1.60;;;;;;;;;;4994772;28;20148;-74
2021/10/02 03:21:08;;;;;;;2.88;1.52;;;;;;;;;;4994899;28;20030;-74
2021/10/02 03:23:33;;;;;;;2.08;1.58;;;;;;;;;;4989557;28;20041;-74
2021/10/02 03:26:00;;;;;;;2.70;1.77;;;;;;;;;;4990204;28;20031;-73
2021/10/02 03:28:28;;;;;;;2.13;1.73;;;;;;;;;;4988351;28;20073;-74
2021/10/02 03:30:53;;;;;;;1.48;1.25;;;;;;;;;;4994852;28;20037;-74
2021/10/02 03:33:20;;;;;;;2.78;1.48;;;;;;;;;;4994555;28;20022;-74
2021/10/02 03:35:46;;;;;;;1.88;1.48;;;;;;;;;;4994760;28;20030;-73
2021/10/02 03:38:12;;;;;;;2.72;1.52;;;;;;;;;;4993159;28;20030;-73
2021/10/02 03:40:37;;;;;;;1.40;1.30;;;;;;;;;;4993264;28;20040;-73
2021/10/02 03:43:02;;;;;;;2.25;1.63;;;;;;;;;;4994052;28;20026;-73
2021/10/02 03:45:28;;;;;;;2.70;1.63;;;;;;;;;;4993310;28;20464;-73
2021/10/02 03:47:54;;;;;;;3.90;1.83;;;;;;;;;;4992987;28;20122;-73
2021/10/02 03:50:19;;;;;;;1.90;1.80;;;;;;;;;;4993157;28;20527;-73
2021/10/02 03:52:45;;;;;;;3.65;1.77;;;;;;;;;;4994075;28;20042;-73
2021/10/02 03:55:11;;;;;;;3.85;2.47;;;;;;;;;;4993014;28;20396;-73
2021/10/02 03:57:36;;;;;;;4.03;2.20;;;;;;;;;;5012343;28;20200;-73
2021/10/02 04:00:03;;;;;;;2.15;1.90;;;;;;;;;;5013439;28;20113;-73
2021/10/02 04:02:28;;;;;;;2.05;1.70;;;;;;;;;;4996566;28;20440;-73
2021/10/02 04:04:55;;;;;;;2.03;1.60;;;;;;;;;;5013791;28;20148;-73
2021/10/02 04:07:20;;;;;;;3.30;1.90;;;;;;;;;;5014416;28;20439;-73
2021/10/02 04:09:45;;;;;;;2.53;1.80;;;;;;;;;;4979449;28;20541;-73
2021/10/02 04:12:10;;;;;;;2.03;1.70;;;;;;;;;;4995249;28;20034;-73
2021/10/02 04:14:35;;;;;;;3.28;1.50;;;;;;;;;;4979688;28;20028;-73
2021/10/02 04:17:01;;;;;;;3.88;2.17;;;;;;;;;;5013394;28;20483;-73
2021/10/02 04:19:26;;;;;;;2.22;1.75;;;;;;;;;;5013230;28;20021;-73
2021/10/02 04:21:52;;;;;;;3.03;1.88;;;;;;;;;;5013320;28;20105;-73
2021/10/02 04:24:17;;;;;;;3.88;2.10;;;;;;;;;;4991677;28;20060;-73
2021/10/02 04:26:43;;;;;;;1.85;1.60;;;;;;;;;;4975348;28;20027;-72
2021/10/02 04:29:08;;;;;;;2.38;1.80;;;;;;;;;;4976475;28;20018;-74
2021/10/02 04:31:33;;;;;;;2.85;2.65;;;;;;;;;;4978754;28;20038;-73
2021/10/02 04:33:58;;;;;;;2.85;2.13;;;;;;;;;;5002639;28;20022;-73
2021/10/02 04:36:24;;;;;;;2.95;1.80;;;;;;;;;;5013247;28;20366;-73
2021/10/02 04:38:49;;;;;;;3.08;1.90;;;;;;;;;;5013055;28;20381;-73
2021/10/02 04:41:14;;;;;;;2.40;1.75;;;;;;;;;;4995137;28;20057;-73
2021/10/02 04:43:44;;;;;;;3.33;1.90;;;;;;;;;;5012695;28;20030;-73
2021/10/02 04:46:14;;;;;;;2.90;2.03;;;;;;;;;;5013024;28;20018;-73
2021/10/02 04:48:40;;;;;;;2.47;1.90;;;;;;;;;;5013084;28;20032;-73
2021/10/02 04:51:05;;;;;;;4.28;2.17;;;;;;;;;;5012190;28;20470;-73
2021/10/02 04:53:31;;;;;;;2.65;2.20;;;;;;;;;;4995064;28;20040;-73
2021/10/02 04:55:59;;;;;;;3.28;2.30;;;;;;;;;;5006396;28;20049;-73
2021/10/02 04:58:24;;;;;;;2.90;1.88;;;;;;;;;;4995196;28;20503;-73
2021/10/02 05:00:49;;;;;;;2.22;2.03;;;;;;;;;;5012500;28;20089;-73
2021/10/02 05:03:15;;;;;;;3.63;1.90;;;;;;;;;;5012775;28;20464;-74
2021/10/02 05:05:40;;;;;;;3.35;2.40;;;;;;;;;;5012603;28;20092;-73
2021/10/02 05:08:05;;;;;;;2.58;2.38;;;;;;;;;;4995337;28;20122;-73
2021/10/02 05:10:31;;;;;;;3.20;2.33;;;;;;;;;;5012468;28;20026;-73
2021/10/02 05:12:56;;;;;;;4.05;2.63;;;;;;;;;;5012034;28;20041;-73
2021/10/02 05:15:21;;;;;;;3.60;2.53;;;;;;;;;;4994865;28;20437;-73
2021/10/02 05:17:46;;;;;;;3.05;2.15;;;;;;;;;;5012514;28;20033;-73
2021/10/02 05:20:11;;;;;;;3.53;2.60;;;;;;;;;;4994798;28;20030;-73
2021/10/02 05:22:36;;;;;;;2.30;2.03;;;;;;;;;;5011871;28;20040;-73
2021/10/02 05:25:02;;;;;;;3.88;2.30;;;;;;;;;;4992731;28;20037;-73
2021/10/02 05:27:27;;;;;;;2.90;2.33;;;;;;;;;;4994381;28;20013;-73
2021/10/02 05:29:52;;;;;;;2.97;2.17;;;;;;;;;;5012114;28;20029;-74
2021/10/02 05:32:18;;;;;;;3.15;2.08;;;;;;;;;;5011949;28;20399;-73
2021/10/02 05:34:43;;;;;;;4.03;2.40;;;;;;;;;;4977572;28;20380;-73
2021/10/02 05:37:08;;;;;;;2.90;2.50;;;;;;;;;;5012106;28;20100;-74
2021/10/02 05:39:34;;;;;;;3.03;2.58;;;;;;;;;;4977372;28;20022;-72
2021/10/02 05:41:59;;;;;;;3.35;2.47;;;;;;;;;;4994159;28;20068;-73
2021/10/02 05:44:25;;;;;;;3.97;3.00;;;;;;;;;;4994254;28;20022;-73
2021/10/02 05:46:50;;;;;;;2.67;2.35;;;;;;;;;;5011932;28;20432;-73
2021/10/02 05:49:15;;;;;;;3.90;2.72;;;;;;;;;;4994473;28;20025;-73
2021/10/02 05:51:40;;;;;;;4.38;2.35;;;;;;;;;;5011673;28;20369;-73
2021/10/02 05:54:08;;;;;;;4.18;2.95;;;;;;;;;;5010238;28;20064;-73
2021/10/02 05:56:33;;;;;;;5.60;3.25;;;;;;;;;;5011163;28;20137;-73
2021/10/02 05:58:58;;;;;;;3.95;2.65;;;;;;;;;;5012047;28;20104;-73
2021/10/02 06:01:23;;;;;;;3.15;2.67;;;;;;;;;;5011733;28;20379;-74
2021/10/02 06:03:48;;;;;;;3.90;2.88;;;;;;;;;;5011800;28;20017;-73
2021/10/02 06:06:14;;;;;;;6.00;2.92;;;;;;;;;;5011624;28;20030;-73
2021/10/02 06:08:39;;;;;;;4.30;2.47;;;;;;;;;;4993990;28;20021;-72
2021/10/02 06:11:04;;;;;;;4.55;2.83;;;;;;;;;;5011518;28;20026;-73
2021/10/02 06:13:32;;;;;;;4.43;2.63;;;;;;;;;;4993510;28;20514;-73
2021/10/02 06:15:58;;;;;;;3.20;2.50;;;;;;;;;;4993814;28;20022;-73
2021/10/02 06:18:23;;;;;;;4.90;2.55;;;;;;;;;;4993836;28;20037;-73
2021/10/02 06:20:48;;;;;;;2.80;2.50;;;;;;;;;;5011371;28;20369;-73
2021/10/02 06:23:16;;;;;;;3.88;2.40;;;;;;;;;;5011623;28;20041;-73
2021/10/02 06:25:42;;;;;;;2.60;2.38;;;;;;;;;;5010732;28;20033;-73
2021/10/02 06:28:07;;;;;;;3.22;2.65;;;;;;;;;;4993163;28;20030;-73
2021/10/02 06:30:32;;;;;;;3.05;2.72;;;;;;;;;;4991481;28;20030;-73
2021/10/02 06:32:57;;;;;;;3.10;2.38;;;;;;;;;;4991921;28;20027;-73
2021/10/02 06:35:23;;;;;;;3.90;2.58;;;;;;;;;;5010859;28;20419;-73
2021/10/02 06:37:48;;;;;;;3.08;2.38;;;;;;;;;;4977577;28;20018;-73
2021/10/02 06:40:14;;;;;;;3.33;2.47;;;;;;;;;;4993455;28;20026;-73
2021/10/02 06:42:39;;;;;;;2.53;2.30;;;;;;;;;;5011007;28;20026;-73
2021/10/02 06:45:05;;;;;;;3.92;2.28;;;;;;;;;;5011496;28;20034;-73
2021/10/02 06:47:30;;;;;;;3.60;2.70;;;;;;;;;;5011207;28;20013;-74
2021/10/02 06:50:00;;;;;;;6.32;2.60;;;;;;;;;;4994119;28;20435;-72
2021/10/02 06:52:25;;;;;;;4.13;2.72;;;;;;;;;;4996948;28;20056;-72
2021/10/02 06:54:50;;;;;;;4.40;2.97;;;;;;;;;;5014191;28;20379;-73
2021/10/02 06:57:15;;;;;;;4.78;2.65;;;;;;;;;;5005606;28;20042;-73
2021/10/02 06:59:41;;;;;;;2.85;2.40;;;;;;;;;;4996958;28;20033;-72
2021/10/02 07:02:06;;;;;;;2.88;2.28;;;;;;;;;;4997246;28;20060;-73
2021/10/02 07:04:31;;;;;;;2.35;2.15;;;;;;;;;;4996765;28;20034;-72
2021/10/02 07:06:57;;;;;;;2.65;1.90;;;;;;;;;;5015062;28;20537;-73
2021/10/02 07:09:22;;;;;;;3.75;2.40;;;;;;;;;;5014171;28;20026;-73
2021/10/02 07:11:47;;;;;;;4.07;2.15;;;;;;;;;;5014297;28;20545;-73
2021/10/02 07:14:12;;;;;;;2.95;2.42;;;;;;;;;;4997283;28;20439;-73
2021/10/02 07:16:37;;;;;;;3.05;2.45;;;;;;;;;;4996727;28;20141;-73
2021/10/02 07:19:03;;;;;;;3.72;2.90;;;;;;;;;;5015124;28;20145;-74
2021/10/02 07:21:28;;;;;;;5.75;3.47;;;;;;;;;;4996141;28;20499;-73
2021/10/02 07:23:53;;;;;;;6.15;3.70;;;;;;;;;;4995790;28;20476;-73
2021/10/02 07:26:18;;;;;;;6.72;3.85;;;;;;;;;;5013895;28;20034;-73
2021/10/02 07:28:43;;;;;;;8.40;4.00;;;;;;;;;;4996228;28;20113;-74
2021/10/02 07:31:09;;;;;;;6.53;2.70;;;;;;;;;;5014105;28;20419;-73
2021/10/02 07:33:34;;;;;;;4.20;2.55;;;;;;;;;;4996493;28;20030;-74
2021/10/02 07:35:59;;;;;;;3.28;2.30;;;;;;;;;;5013957;28;20498;-74
2021/10/02 07:38:25;;;;;;;4.15;2.42;;;;;;;;;;4976925;28;20037;-72
2021/10/02 07:40:50;;;;;;;3.78;2.42;;;;;;;;;;4988085;28;20033;-73
2021/10/02 07:43:16;;;;;;;5.32;2.53;;;;;;;;;;4976381;28;20041;-72
2021/10/02 07:45:43;;;;;;;5.53;2.05;;;;;;;;;;4995758;28;20109;-73
2021/10/02 07:48:08;;;;;;;2.15;1.52;;;;;;;;;;5013985;28;20053;-73
2021/10/02 07:50:34;;;;;;;3.88;1.88;;;;;;;;;;5013589;28;20025;-72
2021/10/02 07:52:59;;;;;;;2.65;1.60;;;;;;;;;;5013583;28;20034;-73
2021/10/02 07:55:25;;;;;;;1.65;1.40;;;;;;;;;;5011480;28;20026;-73
2021/10/02 07:57:50;;;;;;;1.75;1.23;;;;;;;;;;5012925;28;20026;-73
2021/10/02 08:00:17;;;;;;;1.58;1.00;;;;;;;;;;5013593;28;20030;-73
2021/10/02 08:02:46;;;;;;;1.35;0.93;;;;;;;;;;4995069;28;20464;-73
2021/10/02 08:05:12;;;;;;;1.67;1.30;;;;;;;;;;5013391;28;20022;-73
2021/10/02 08:07:39;;;;;;;2.15;1.00;;;;;;;;;;5013565;28;20539;-73
2021/10/02 08:10:05;;;;;;;1.95;0.85;;;;;;;;;;4995780;28;20080;-73
2021/10/02 08:12:30;;;;;;;1.67;1.35;;;;;;;;;;4995010;28;20201;-76
2021/10/02 08:14:55;;;;;;;1.48;1.20;;;;;;;;;;4995620;28;20018;-76
2021/10/02 08:17:21;;;;;;;1.35;0.80;;;;;;;;;;4995613;28;20503;-76
2021/10/02 08:19:47;;;;;;;2.28;1.20;;;;;;;;;;5012798;28;20022;-77
2021/10/02 08:22:13;;;;;;;1.75;1.08;;;;;;;;;;5012251;28;20028;-73
2021/10/02 08:24:40;;;;;;;2.63;0.98;;;;;;;;;;4995193;28;20022;-72
2021/10/02 08:27:05;;;;;;;2.60;1.02;;;;;;;;;;5004748;28;20026;-72
2021/10/02 08:29:31;;;;;;;4.35;0.75;;;;;;;;;;5006721;28;20022;-72
2021/10/02 08:31:56;;;;;;;1.92;0.57;;;;;;;;;;5006717;28;20034;-72
2021/10/02 08:34:22;;;;;;;2.63;0.70;;;;;;;;;;5010136;28;20026;-71
2021/10/02 08:36:47;;;;;;;1.50;0.55;;;;;;;;;;5012956;28;20037;-72
2021/10/02 08:39:13;;;;;;;1.90;0.50;;;;;;;;;;5008319;28;20492;-72
2021/10/02 08:41:39;;;;;;;2.72;0.43;;;;;;;;;;5001575;28;20375;-71
2021/10/02 08:44:04;;;;;;;2.20;0.50;;;;;;;;;;4970976;28;20026;-72
2021/10/02 08:46:29;;;;;;;1.05;0.30;;;;;;;;;;5012576;28;20554;-72
2021/10/02 08:49:13;;;;;;;1.17;0.40;;;;;;;;;;5013271;28;20033;-72
2021/10/02 08:51:41;;;;;;;2.85;0.35;;;;;;;;;;5011882;28;20029;-72
2021/10/02 08:54:06;;;;;;;1.05;0.30;;;;;;;;;;5013211;28;20048;-73
2021/10/02 08:56:32;;;;;;;2.72;0.40;;;;;;;;;;4990905;28;20464;-73
2021/10/02 08:58:58;;;;;;;1.75;0.30;;;;;;;;;;4993832;28;20068;-74
2021/10/02 09:01:23;;;;;;;1.83;0.43;;;;;;;;;;5003529;28;20432;-73
2021/10/02 09:03:48;;;;;;;3.20;0.40;;;;;;;;;;5000768;28;20053;-73
2021/10/02 09:06:14;;;;;;;0.83;0.27;;;;;;;;;;4983665;28;20543;-72
2021/10/02 09:08:39;;;;;;;1.60;0.30;;;;;;;;;;4975269;28;20272;-73
2021/10/02 09:11:04;;;;;;;1.48;0.32;;;;;;;;;;4986836;28;20038;-74
2021/10/02 09:13:29;;;;;;;1.33;0.35;;;;;;;;;;4989566;28;20432;-74
2021/10/02 09:15:55;;;;;;;2.10;0.30;;;;;;;;;;5011113;28;20030;-72
2021/10/02 09:18:23;;;;;;;0.98;0.40;;;;;;;;;;4978394;28;20705;-73
2021/10/02 09:21:08;;;;;;;1.35;0.30;;;;;;;;;;4994196;28;20021;-72
2021/10/02 09:23:42;;;;;;;1.25;0.38;;;;;;;;;;4993449;28;20117;-74
2021/10/02 09:26:08;;;;;;;1.83;0.50;;;;;;;;;;4966542;28;20590;-74
2021/10/02 09:28:37;;;;;;;0.50;0.30;;;;;;;;;;4977060;28;20778;-73
2021/10/02 09:31:03;;;;;;;0.47;0.30;;;;;;;;;;5011936;28;20061;-73
2021/10/02 09:33:28;;;;;;;1.45;0.30;;;;;;;;;;5011981;28;20073;-72
2021/10/02 09:35:54;;;;;;;1.30;0.30;;;;;;;;;;4977433;28;20037;-75
2021/10/02 09:38:20;;;;;;;1.83;0.38;;;;;;;;;;4993101;28;20065;-72
2021/10/02 09:41:04;;;;;;;1.48;0.40;;;;;;;;;;5008463;28;20094;-72
2021/10/02 09:43:30;;;;;;;0.70;0.33;;;;;;;;;;4993145;28;20029;-74
2021/10/02 09:45:55;;;;;;;1.80;0.50;;;;;;;;;;4992912;28;20280;-74
2021/10/02 09:48:27;;;;;;;1.48;0.30;;;;;;;;;;5010947;28;20495;-73
2021/10/02 09:50:53;;;;;;;2.72;0.30;;;;;;;;;;4974959;28;20108;-73
2021/10/02 09:53:19;;;;;;;3.60;0.30;;;;;;;;;;4992249;28;20426;-72
2021/10/02 09:55:46;;;;;;;0.70;0.20;;;;;;;;;;4983818;28;20046;-73
2021/10/02 09:58:11;;;;;;;1.40;0.30;;;;;;;;;;5008018;28;20026;-73
2021/10/02 10:00:41;;;;;;;1.13;0.40;;;;;;;;;;5011785;28;20073;-73
2021/10/02 10:03:07;;;;;;;1.40;0.20;;;;;;;;;;5001450;28;20316;-73
2021/10/02 10:05:33;;;;;;;0.75;0.30;;;;;;;;;;4975851;28;20034;-71
2021/10/02 10:08:02;;;;;;;0.60;0.40;;;;;;;;;;4986303;28;20558;-72
2021/10/02 10:10:31;;;;;;;1.05;0.30;;;;;;;;;;4993332;28;20120;-72
2021/10/02 10:13:00;;;;;;;0.57;0.20;;;;;;;;;;4992148;28;20114;-73
2021/10/02 10:15:28;;;;;;;1.52;0.22;;;;;;;;;;4997736;28;20033;-72
2021/10/02 10:17:53;;;;;;;0.40;0.20;;;;;;;;;;4995245;28;20037;-73
2021/10/02 10:20:18;;;;;;;0.77;0.30;;;;;;;;;;4977310;28;20026;-73
2021/10/02 10:22:44;;;;;;;0.95;0.30;;;;;;;;;;4993380;28;20068;-73
2021/10/02 10:25:10;;;;;;;1.20;0.30;;;;;;;;;;5001197;28;20499;-73
2021/10/02 10:27:40;;;;;;;0.88;0.32;;;;;;;;;;5008968;28;20045;-73
2021/10/02 10:30:05;;;;;;;0.40;0.30;;;;;;;;;;5014856;28;20048;-73
2021/10/02 10:32:30;;;;;;;0.75;0.30;;;;;;;;;;4997137;28;20177;-73
2021/10/02 10:34:56;;;;;;;0.75;0.30;;;;;;;;;;5014645;28;20053;-73
2021/10/02 10:37:21;;;;;;;1.42;0.47;;;;;;;;;;5014826;28;20018;-74
2021/10/02 10:39:46;;;;;;;0.52;0.35;;;;;;;;;;5015046;28;20112;-72
2021/10/02 10:42:11;;;;;;;2.42;0.30;;;;;;;;;;5013943;28;20424;-73
2021/10/02 10:44:37;;;;;;;1.85;0.50;;;;;;;;;;5015297;28;20022;-72
2021/10/02 10:47:02;;;;;;;2.47;0.40;;;;;;;;;;5014746;28;20030;-73
2021/10/02 10:49:27;;;;;;;0.20;0.20;;;;;;;;;;4997261;28;20022;-73
2021/10/02 10:51:57;;;;;;;1.20;0.30;;;;;;;;;;4996713;28;20083;-73
2021/10/02 10:54:22;;;;;;;0.50;0.40;;;;;;;;;;4991165;28;20018;-73
2021/10/02 10:56:49;;;;;;;0.63;0.20;;;;;;;;;;4988948;28;20121;-72
2021/10/02 10:59:20;;;;;;;1.38;0.50;;;;;;;;;;4996970;28;20045;-72
2021/10/02 11:01:49;;;;;;;0.70;0.30;;;;;;;;;;5013990;28;20119;-73
2021/10/02 11:04:33;;;;;;;0.85;0.40;;;;;;;;;;4989485;28;20022;-72
2021/10/02 11:06:59;;;;;;;0.40;0.30;;;;;;;;;;4997161;28;20018;-73
2021/10/02 11:09:41;;;;;;;1.80;0.30;;;;;;;;;;5014249;28;20124;-72
2021/10/02 11:12:14;;;;;;;0.75;0.40;;;;;;;;;;5014034;28;20022;-73
2021/10/02 11:14:59;;;;;;;0.57;0.30;;;;;;;;;;5014633;28;20342;-73
2021/10/02 11:17:27;;;;;;;0.65;0.47;;;;;;;;;;5014116;28;20156;-72
2021/10/02 11:19:53;;;;;;;0.40;0.30;;;;;;;;;;5013907;28;20420;-72
2021/10/02 11:22:42;;;;;;;0.57;0.30;;;;;;;;;;5014132;28;20108;-72
2021/10/02 11:25:20;;;;;;;1.05;0.30;;;;;;;;;;5001624;28;20771;-73
2021/10/02 11:27:46;;;;;;;1.00;0.50;;;;;;;;;;4992468;28;20026;-72
2021/10/02 11:30:12;;;;;;;0.73;0.30;;;;;;;;;;4996044;28;20037;-73
2021/10/02 11:32:38;;;;;;;0.40;0.30;;;;;;;;;;4996703;28;20357;-71
2021/10/02 11:35:16;;;;;;;1.50;0.40;;;;;;;;;;5014108;28;20033;-73
2021/10/02 11:37:47;;;;;;;0.40;0.35;;;;;;;;;;5012830;28;20257;-72
2021/10/02 11:40:31;;;;;;;0.90;0.50;;;;;;;;;;4996104;28;20022;-73
2021/10/02 11:43:11;;;;;;;0.85;0.50;;;;;;;;;;5013640;28;20025;-73
2021/10/02 11:45:37;;;;;;;1.00;0.40;;;;;;;;;;5013986;28;20046;-73
2021/10/02 11:48:11;;;;;;;0.80;0.55;;;;;;;;;;4996231;28;20065;-73
2021/10/02 11:50:36;;;;;;;0.77;0.45;;;;;;;;;;5013776;28;20499;-72
2021/10/02 11:53:01;;;;;;;1.35;0.50;;;;;;;;;;4995920;28;20034;-73
2021/10/02 11:55:33;;;;;;;1.07;0.40;;;;;;;;;;5001121;28;20022;-73
2021/10/02 11:58:07;;;;;;;1.35;0.45;;;;;;;;;;5011107;28;20030;-72
2021/10/02 12:00:44;;;;;;;1.48;0.50;;;;;;;;;;5013444;28;20080;-72
2021/10/02 12:03:10;;;;;;;0.65;0.50;;;;;;;;;;5013996;28;20037;-73
2021/10/02 12:05:35;;;;;;;0.55;0.52;;;;;;;;;;5013710;28;20088;-73
2021/10/02 12:08:00;;;;;;;0.60;0.43;;;;;;;;;;4979916;28;20519;-73
2021/10/02 12:10:26;;;;;;;0.70;0.40;;;;;;;;;;4995482;28;20034;-73
2021/10/02 12:12:52;;;;;;;2.13;0.55;;;;;;;;;;5013009;28;20360;-73
2021/10/02 12:15:33;;;;;;;0.52;0.50;;;;;;;;;;5013544;28;20028;-72
2021/10/02 12:17:59;;;;;;;0.77;0.40;;;;;;;;;;4994993;28;20132;-72
2021/10/02 12:20:37;;;;;;;1.08;0.60;;;;;;;;;;5013562;28;20109;-72
2021/10/02 12:23:03;;;;;;;0.88;0.40;;;;;;;;;;4995616;28;20109;-72
2021/10/02 12:25:28;;;;;;;0.40;0.40;;;;;;;;;;4999386;28;20064;-72
2021/10/02 12:27:54;;;;;;;0.77;0.40;;;;;;;;;;4975145;28;20061;-73
2021/10/02 12:30:19;;;;;;;1.27;0.50;;;;;;;;;;4995282;28;20029;-73
2021/10/02 12:32:44;;;;;;;1.40;0.50;;;;;;;;;;4995466;28;20285;-73
2021/10/02 12:35:12;;;;;;;1.23;0.30;;;;;;;;;;5013014;28;20088;-72
2021/10/02 12:37:39;;;;;;;0.70;0.52;;;;;;;;;;4979605;28;20167;-72
2021/10/02 12:40:08;;;;;;;0.50;0.30;;;;;;;;;;5012630;28;20032;-72
2021/10/02 12:42:36;;;;;;;0.93;0.45;;;;;;;;;;5011757;28;20026;-74
2021/10/02 12:45:12;;;;;;;0.57;0.35;;;;;;;;;;5013062;28;20026;-73
2021/10/02 12:47:38;;;;;;;0.95;0.30;;;;;;;;;;5012148;28;20021;-73
2021/10/02 12:50:06;;;;;;;0.73;0.30;;;;;;;;;;5012714;28;20048;-72
2021/10/02 12:52:32;;;;;;;1.70;0.57;;;;;;;;;;5011800;28;20087;-73
2021/10/02 12:54:58;;;;;;;1.67;0.50;;;;;;;;;;4985465;28;20026;-72
2021/10/02 12:57:34;;;;;;;0.47;0.43;;;;;;;;;;5010140;28;20304;-73
2021/10/02 12:59:59;;;;;;;1.05;0.60;;;;;;;;;;4998681;28;20364;-73
2021/10/02 13:02:25;;;;;;;0.40;0.40;;;;;;;;;;5012340;28;20053;-73
2021/10/02 13:04:50;;;;;;;1.45;0.55;;;;;;;;;;5012549;28;20268;-72
2021/10/02 13:07:23;;;;;;;0.40;0.40;;;;;;;;;;5012160;28;20494;-73
2021/10/02 13:09:53;;;;;;;2.58;0.40;;;;;;;;;;5011958;28;20025;-73
2021/10/02 13:12:23;;;;;;;1.70;0.60;;;;;;;;;;5011547;28;20026;-73
2021/10/02 13:14:48;;;;;;;1.02;0.43;;;;;;;;;;5012700;28;20021;-73
2021/10/02 13:17:14;;;;;;;0.73;0.30;;;;;;;;;;5009840;28;20104;-74
2021/10/02 13:19:40;;;;;;;0.40;0.40;;;;;;;;;;4987693;28;20021;-73
2021/10/02 13:22:31;;;;;;;1.90;0.50;;;;;;;;;;5011709;28;20094;-74
2021/10/02 13:25:08;;;;;;;3.22;0.50;;;;;;;;;;4995353;28;20061;-74
2021/10/02 13:27:37;;;;;;;0.80;0.40;;;;;;;;;;4986042;28;20433;-73
2021/10/02 13:30:22;;;;;;;1.27;0.50;;;;;;;;;;5011826;28;20026;-73
2021/10/02 13:32:57;;;;;;;1.67;0.40;;;;;;;;;;5010005;28;20534;-73
2021/10/02 13:35:22;;;;;;;1.25;0.30;;;;;;;;;;5011815;28;20022;-73
2021/10/02 13:37:47;;;;;;;0.95;0.30;;;;;;;;;;5011618;28;20107;-72
2021/10/02 13:40:23;;;;;;;1.20;0.30;;;;;;;;;;4993813;28;20554;-72
2021/10/02 13:42:50;;;;;;;1.00;0.68;;;;;;;;;;5011328;28;20541;-72
2021/10/02 13:45:15;;;;;;;3.20;0.55;;;;;;;;;;5012216;28;20034;-73
2021/10/02 13:47:40;;;;;;;0.77;0.47;;;;;;;;;;5011691;28;20022;-72
2021/10/02 13:50:06;;;;;;;0.57;0.57;;;;;;;;;;5011596;28;20068;-71
2021/10/02 13:52:33;;;;;;;1.17;0.50;;;;;;;;;;5011605;28;20067;-72
2021/10/02 13:54:58;;;;;;;1.23;0.40;;;;;;;;;;5009629;28;20063;-72
2021/10/02 13:57:23;;;;;;;1.47;0.60;;;;;;;;;;4990498;28;20051;-72
2021/10/02 13:59:48;;;;;;;0.60;0.40;;;;;;;;;;4989980;28;20269;-72
2021/10/02 14:02:14;;;;;;;2.10;1.00;;;;;;;;;;4991756;28;20069;-72
2021/10/02 14:04:39;;;;;;;0.60;0.43;;;;;;;;;;4991035;28;20613;-72
2021/10/02 14:07:05;;;;;;;1.70;0.60;;;;;;;;;;4991147;28;20038;-71
2021/10/02 14:09:30;;;;;;;0.65;0.65;;;;;;;;;;4974457;28;20096;-71
2021/10/02 14:11:55;;;;;;;1.40;0.65;;;;;;;;;;4989591;28;20507;-72
2021/10/02 14:14:20;;;;;;;2.45;0.65;;;;;;;;;;4991906;28;20114;-72
2021/10/02 14:16:46;;;;;;;0.80;0.47;;;;;;;;;;4990919;28;20498;-72
2021/10/02 14:19:11;;;;;;;0.87;0.57;;;;;;;;;;4991714;28;20480;-72
2021/10/02 14:21:36;;;;;;;0.93;0.50;;;;;;;;;;4991512;28;20270;-72
2021/10/02 14:24:01;;;;;;;1.45;0.57;;;;;;;;;;4988809;28;20030;-72
2021/10/02 14:26:27;;;;;;;0.80;0.50;;;;;;;;;;4991973;28;20378;-72
2021/10/02 14:28:52;;;;;;;1.73;0.70;;;;;;;;;;4991646;28;20026;-72
2021/10/02 14:31:17;;;;;;;1.47;0.50;;;;;;;;;;4991423;28;20022;-73
2021/10/02 14:33:46;;;;;;;1.10;0.50;;;;;;;;;;4989302;28;20683;-72
2021/10/02 14:36:12;;;;;;;1.27;0.70;;;;;;;;;;4991840;28;20021;-72
2021/10/02 14:38:38;;;;;;;2.40;0.60;;;;;;;;;;4991971;28;20031;-72
2021/10/02 14:41:03;;;;;;;1.02;0.70;;;;;;;;;;4991276;28;20601;-73
2021/10/02 14:43:29;;;;;;;1.45;0.63;;;;;;;;;;4985296;28;20045;-73
2021/10/02 14:45:54;;;;;;;0.95;0.82;;;;;;;;;;4990862;28;20046;-72
2021/10/02 14:48:20;;;;;;;1.55;0.60;;;;;;;;;;4991540;28;20480;-72
2021/10/02 14:50:45;;;;;;;1.53;0.80;;;;;;;;;;4974284;28;20026;-72
2021/10/02 14:53:11;;;;;;;1.00;0.60;;;;;;;;;;4990918;28;20639;-73
2021/10/02 14:55:37;;;;;;;1.13;0.65;;;;;;;;;;4992171;28;20395;-72
2021/10/02 14:58:03;;;;;;;1.30;0.70;;;;;;;;;;4996429;28;20072;-72
2021/10/02 15:00:28;;;;;;;1.15;0.88;;;;;;;;;;4993441;28;20029;-72
2021/10/02 15:02:54;;;;;;;1.00;0.60;;;;;;;;;;5010889;28;20017;-72
2021/10/02 15:05:19;;;;;;;1.73;1.30;;;;;;;;;;4995676;28;20029;-73
2021/10/02 15:07:45;;;;;;;2.80;1.23;;;;;;;;;;5011380;28;20237;-73
2021/10/02 15:10:12;;;;;;;1.30;1.08;;;;;;;;;;4993666;28;20049;-73
2021/10/02 15:12:37;;;;;;;0.73;0.73;;;;;;;;;;5013491;28;20053;-72
2021/10/02 15:15:03;;;;;;;1.75;0.80;;;;;;;;;;5013939;28;20044;-71
2021/10/02 15:17:29;;;;;;;2.25;1.23;;;;;;;;;;5014254;28;20022;-72
2021/10/02 15:19:54;;;;;;;2.28;0.85;;;;;;;;;;4996799;28;20579;-73
2021/10/02 15:22:20;;;;;;;1.83;0.98;;;;;;;;;;4996626;28;20218;-72
2021/10/02 15:24:48;;;;;;;1.70;0.82;;;;;;;;;;4994280;28;20034;-72
2021/10/02 15:27:16;;;;;;;2.75;0.90;;;;;;;;;;5013922;28;20464;-72
2021/10/02 15:29:42;;;;;;;1.10;1.00;;;;;;;;;;5013891;28;20028;-73
2021/10/02 15:32:09;;;;;;;1.80;1.00;;;;;;;;;;5013933;28;20022;-73
2021/10/02 15:34:35;;;;;;;1.83;0.90;;;;;;;;;;5014158;28;20029;-73
2021/10/02 15:37:01;;;;;;;1.40;1.08;;;;;;;;;;5014236;28;20030;-72
2021/10/02 15:39:27;;;;;;;1.85;1.25;;;;;;;;;;4996159;28;20018;-73
2021/10/02 15:41:53;;;;;;;3.10;1.52;;;;;;;;;;5013670;28;20037;-73